sensor_id;sensor_type;location;lat;lon;timestamp;P1;durP1;ratioP1;P2;durP2;ratioP2
80241;SDS011;69556;45.004;7.532;2023-12-20T00:02:05;39.10;;;22.23;;
80241;SDS011;69556;45.004;7.532;2023-12-20T00:04:30;37.20;;;21.03;;
80241;SDS011;69556;45.004;7.532;2023-12-20T00:06:55;35.07;;;19.37;;
80241;SDS011;69556;45.004;7.532;2023-12-20T00:09:20;35.93;;;18.73;;
80241;SDS011;69556;45.004;7.532;2023-12-20T00:11:46;34.67;;;20.37;;
80241;SDS011;69556;45.004;7.532;2023-12-20T00:14:11;42.75;;;18.52;;
80241;SDS011;69556;45.004;7.532;2023-12-20T00:16:36;45.47;;;25.10;;
80241;SDS011;69556;45.004;7.532;2023-12-20T00:19:02;46.47;;;23.03;;
80241;SDS011;69556;45.004;7.532;2023-12-20T00:21:27;37.03;;;19.93;;
80241;SDS011;69556;45.004;7.532;2023-12-20T00:23:52;38.97;;;20.83;;
80241;SDS011;69556;45.004;7.532;2023-12-20T00:26:18;39.47;;;22.43;;
80241;SDS011;69556;45.004;7.532;2023-12-20T00:28:43;38.45;;;22.02;;
80241;SDS011;69556;45.004;7.532;2023-12-20T00:31:08;35.13;;;20.90;;
80241;SDS011;69556;45.004;7.532;2023-12-20T00:33:34;41.50;;;21.63;;
80241;SDS011;69556;45.004;7.532;2023-12-20T00:35:59;35.67;;;20.00;;
80241;SDS011;69556;45.004;7.532;2023-12-20T00:38:25;40.33;;;22.65;;
80241;SDS011;69556;45.004;7.532;2023-12-20T00:40:50;38.42;;;22.52;;
80241;SDS011;69556;45.004;7.532;2023-12-20T00:43:16;38.92;;;22.88;;
80241;SDS011;69556;45.004;7.532;2023-12-20T00:45:41;43.97;;;26.40;;
80241;SDS011;69556;45.004;7.532;2023-12-20T00:48:06;45.47;;;25.80;;
80241;SDS011;69556;45.004;7.532;2023-12-20T00:50:32;42.75;;;25.60;;
80241;SDS011;69556;45.004;7.532;2023-12-20T00:52:57;42.23;;;23.97;;
80241;SDS011;69556;45.004;7.532;2023-12-20T00:55:23;48.73;;;25.27;;
80241;SDS011;69556;45.004;7.532;2023-12-20T00:57:48;42.95;;;25.88;;
80241;SDS011;69556;45.004;7.532;2023-12-20T01:00:13;43.60;;;23.98;;
80241;SDS011;69556;45.004;7.532;2023-12-20T01:02:39;45.78;;;26.20;;
80241;SDS011;69556;45.004;7.532;2023-12-20T01:05:05;41.08;;;24.20;;
80241;SDS011;69556;45.004;7.532;2023-12-20T01:07:32;47.17;;;26.38;;
80241;SDS011;69556;45.004;7.532;2023-12-20T01:09:58;37.70;;;23.77;;
80241;SDS011;69556;45.004;7.532;2023-12-20T01:12:23;41.50;;;25.07;;
80241;SDS011;69556;45.004;7.532;2023-12-20T01:14:48;42.43;;;24.83;;
80241;SDS011;69556;45.004;7.532;2023-12-20T01:17:14;41.80;;;23.00;;
80241;SDS011;69556;45.004;7.532;2023-12-20T01:19:39;43.03;;;23.87;;
80241;SDS011;69556;45.004;7.532;2023-12-20T01:22:04;40.47;;;23.70;;
80241;SDS011;69556;45.004;7.532;2023-12-20T01:24:30;41.53;;;23.55;;
80241;SDS011;69556;45.004;7.532;2023-12-20T01:26:55;41.50;;;22.33;;
80241;SDS011;69556;45.004;7.532;2023-12-20T01:29:20;47.17;;;24.10;;
80241;SDS011;69556;45.004;7.532;2023-12-20T01:31:46;39.07;;;24.47;;
80241;SDS011;69556;45.004;7.532;2023-12-20T01:34:11;38.27;;;21.77;;
80241;SDS011;69556;45.004;7.532;2023-12-20T01:36:37;43.28;;;23.35;;
80241;SDS011;69556;45.004;7.532;2023-12-20T01:39:02;46.70;;;22.67;;
80241;SDS011;69556;45.004;7.532;2023-12-20T01:41:28;38.95;;;22.30;;
80241;SDS011;69556;45.004;7.532;2023-12-20T01:43:53;38.77;;;22.57;;
80241;SDS011;69556;45.004;7.532;2023-12-20T01:46:19;38.80;;;22.37;;
80241;SDS011;69556;45.004;7.532;2023-12-20T01:48:45;47.65;;;23.70;;
80241;SDS011;69556;45.004;7.532;2023-12-20T01:51:10;36.07;;;23.37;;
80241;SDS011;69556;45.004;7.532;2023-12-20T01:53:36;39.83;;;21.95;;
80241;SDS011;69556;45.004;7.532;2023-12-20T01:56:02;40.72;;;22.38;;
80241;SDS011;69556;45.004;7.532;2023-12-20T01:58:27;35.78;;;20.08;;
80241;SDS011;69556;45.004;7.532;2023-12-20T02:00:53;40.65;;;20.75;;
80241;SDS011;69556;45.004;7.532;2023-12-20T02:03:19;37.78;;;20.83;;
80241;SDS011;69556;45.004;7.532;2023-12-20T02:05:46;37.08;;;21.63;;
80241;SDS011;69556;45.004;7.532;2023-12-20T02:08:12;40.83;;;20.52;;
80241;SDS011;69556;45.004;7.532;2023-12-20T02:10:38;40.83;;;19.10;;
80241;SDS011;69556;45.004;7.532;2023-12-20T02:13:05;29.52;;;17.08;;
80241;SDS011;69556;45.004;7.532;2023-12-20T02:15:30;40.60;;;20.20;;
80241;SDS011;69556;45.004;7.532;2023-12-20T02:17:56;33.95;;;20.70;;
80241;SDS011;69556;45.004;7.532;2023-12-20T02:20:22;44.47;;;21.42;;
80241;SDS011;69556;45.004;7.532;2023-12-20T02:22:47;34.33;;;20.23;;
80241;SDS011;69556;45.004;7.532;2023-12-20T02:25:12;34.47;;;19.83;;
80241;SDS011;69556;45.004;7.532;2023-12-20T02:27:38;29.57;;;17.57;;
80241;SDS011;69556;45.004;7.532;2023-12-20T02:30:05;35.78;;;18.77;;
80241;SDS011;69556;45.004;7.532;2023-12-20T02:32:31;36.55;;;19.52;;
80241;SDS011;69556;45.004;7.532;2023-12-20T02:34:57;33.83;;;18.65;;
80241;SDS011;69556;45.004;7.532;2023-12-20T02:37:22;33.45;;;19.25;;
80241;SDS011;69556;45.004;7.532;2023-12-20T02:39:48;47.50;;;19.02;;
80241;SDS011;69556;45.004;7.532;2023-12-20T02:42:13;39.13;;;18.67;;
80241;SDS011;69556;45.004;7.532;2023-12-20T02:44:38;34.97;;;18.75;;
80241;SDS011;69556;45.004;7.532;2023-12-20T02:47:04;29.50;;;16.30;;
80241;SDS011;69556;45.004;7.532;2023-12-20T02:49:29;32.47;;;18.58;;
80241;SDS011;69556;45.004;7.532;2023-12-20T02:51:54;40.20;;;16.60;;
80241;SDS011;69556;45.004;7.532;2023-12-20T02:54:20;38.42;;;17.67;;
80241;SDS011;69556;45.004;7.532;2023-12-20T02:56:45;29.50;;;17.83;;
80241;SDS011;69556;45.004;7.532;2023-12-20T02:59:10;30.63;;;16.75;;
80241;SDS011;69556;45.004;7.532;2023-12-20T03:01:41;32.60;;;17.30;;
80241;SDS011;69556;45.004;7.532;2023-12-20T03:04:07;27.40;;;15.40;;
80241;SDS011;69556;45.004;7.532;2023-12-20T03:06:32;28.83;;;13.53;;
80241;SDS011;69556;45.004;7.532;2023-12-20T03:08:57;27.88;;;15.50;;
80241;SDS011;69556;45.004;7.532;2023-12-20T03:11:26;32.87;;;16.70;;
80241;SDS011;69556;45.004;7.532;2023-12-20T03:13:51;28.98;;;15.95;;
80241;SDS011;69556;45.004;7.532;2023-12-20T03:16:17;24.00;;;15.87;;
80241;SDS011;69556;45.004;7.532;2023-12-20T03:18:42;25.03;;;16.07;;
80241;SDS011;69556;45.004;7.532;2023-12-20T03:21:07;33.95;;;17.15;;
80241;SDS011;69556;45.004;7.532;2023-12-20T03:23:33;32.07;;;16.97;;
80241;SDS011;69556;45.004;7.532;2023-12-20T03:26:01;30.27;;;15.57;;
80241;SDS011;69556;45.004;7.532;2023-12-20T03:30:52;28.88;;;15.85;;
80241;SDS011;69556;45.004;7.532;2023-12-20T03:33:18;36.00;;;17.48;;
80241;SDS011;69556;45.004;7.532;2023-12-20T03:35:43;29.53;;;16.70;;
80241;SDS011;69556;45.004;7.532;2023-12-20T03:38:09;38.95;;;17.92;;
80241;SDS011;69556;45.004;7.532;2023-12-20T03:40:34;27.27;;;16.42;;
80241;SDS011;69556;45.004;7.532;2023-12-20T03:43:00;35.25;;;16.98;;
80241;SDS011;69556;45.004;7.532;2023-12-20T03:45:25;43.05;;;18.00;;
80241;SDS011;69556;45.004;7.532;2023-12-20T03:47:50;31.17;;;16.07;;
80241;SDS011;69556;45.004;7.532;2023-12-20T03:50:20;25.75;;;15.35;;
80241;SDS011;69556;45.004;7.532;2023-12-20T03:52:47;35.80;;;17.00;;
80241;SDS011;69556;45.004;7.532;2023-12-20T03:55:12;36.93;;;15.43;;
80241;SDS011;69556;45.004;7.532;2023-12-20T03:57:37;31.02;;;17.20;;
80241;SDS011;69556;45.004;7.532;2023-12-20T04:00:03;30.52;;;16.48;;
80241;SDS011;69556;45.004;7.532;2023-12-20T04:02:29;33.47;;;17.08;;
80241;SDS011;69556;45.004;7.532;2023-12-20T04:04:54;23.00;;;15.27;;
80241;SDS011;69556;45.004;7.532;2023-12-20T04:07:19;29.48;;;15.02;;
80241;SDS011;69556;45.004;7.532;2023-12-20T04:09:45;36.13;;;16.05;;
80241;SDS011;69556;45.004;7.532;2023-12-20T04:12:10;26.60;;;15.30;;
80241;SDS011;69556;45.004;7.532;2023-12-20T04:14:35;26.13;;;15.33;;
80241;SDS011;69556;45.004;7.532;2023-12-20T04:17:00;29.33;;;17.60;;
80241;SDS011;69556;45.004;7.532;2023-12-20T04:19:26;30.15;;;18.33;;
80241;SDS011;69556;45.004;7.532;2023-12-20T04:21:51;26.57;;;15.53;;
80241;SDS011;69556;45.004;7.532;2023-12-20T04:24:16;36.77;;;17.17;;
80241;SDS011;69556;45.004;7.532;2023-12-20T04:26:42;29.83;;;18.20;;
80241;SDS011;69556;45.004;7.532;2023-12-20T04:29:07;25.38;;;16.25;;
80241;SDS011;69556;45.004;7.532;2023-12-20T04:31:32;28.97;;;16.03;;
80241;SDS011;69556;45.004;7.532;2023-12-20T04:33:58;27.60;;;16.77;;
80241;SDS011;69556;45.004;7.532;2023-12-20T04:36:24;25.17;;;14.37;;
80241;SDS011;69556;45.004;7.532;2023-12-20T04:38:51;25.95;;;15.02;;
80241;SDS011;69556;45.004;7.532;2023-12-20T04:41:17;27.60;;;15.73;;
80241;SDS011;69556;45.004;7.532;2023-12-20T04:43:46;29.05;;;16.38;;
80241;SDS011;69556;45.004;7.532;2023-12-20T04:48:37;26.23;;;14.53;;
80241;SDS011;69556;45.004;7.532;2023-12-20T04:51:02;28.00;;;16.40;;
80241;SDS011;69556;45.004;7.532;2023-12-20T04:53:28;30.90;;;15.63;;
80241;SDS011;69556;45.004;7.532;2023-12-20T04:55:53;26.13;;;15.37;;
80241;SDS011;69556;45.004;7.532;2023-12-20T04:58:19;32.47;;;16.70;;
80241;SDS011;69556;45.004;7.532;2023-12-20T05:00:44;22.20;;;14.73;;
80241;SDS011;69556;45.004;7.532;2023-12-20T05:03:09;28.10;;;16.17;;
80241;SDS011;69556;45.004;7.532;2023-12-20T05:05:35;25.97;;;15.67;;
80241;SDS011;69556;45.004;7.532;2023-12-20T05:08:00;24.05;;;14.80;;
80241;SDS011;69556;45.004;7.532;2023-12-20T05:10:26;25.30;;;14.80;;
80241;SDS011;69556;45.004;7.532;2023-12-20T05:12:52;26.15;;;15.05;;
80241;SDS011;69556;45.004;7.532;2023-12-20T05:15:17;26.67;;;15.73;;
80241;SDS011;69556;45.004;7.532;2023-12-20T05:17:42;25.73;;;15.60;;
80241;SDS011;69556;45.004;7.532;2023-12-20T05:20:08;26.73;;;16.42;;
80241;SDS011;69556;45.004;7.532;2023-12-20T05:22:33;27.40;;;16.65;;
80241;SDS011;69556;45.004;7.532;2023-12-20T05:24:59;23.93;;;15.80;;
80241;SDS011;69556;45.004;7.532;2023-12-20T05:27:24;30.83;;;15.27;;
80241;SDS011;69556;45.004;7.532;2023-12-20T05:29:49;25.57;;;15.93;;
80241;SDS011;69556;45.004;7.532;2023-12-20T05:32:15;33.80;;;17.95;;
80241;SDS011;69556;45.004;7.532;2023-12-20T05:34:41;29.55;;;15.90;;
80241;SDS011;69556;45.004;7.532;2023-12-20T05:37:06;25.60;;;15.57;;
80241;SDS011;69556;45.004;7.532;2023-12-20T05:39:31;31.07;;;20.03;;
80241;SDS011;69556;45.004;7.532;2023-12-20T05:41:57;37.03;;;19.60;;
80241;SDS011;69556;45.004;7.532;2023-12-20T05:44:22;32.57;;;17.13;;
80241;SDS011;69556;45.004;7.532;2023-12-20T05:46:47;30.87;;;16.00;;
80241;SDS011;69556;45.004;7.532;2023-12-20T05:49:12;29.17;;;15.70;;
80241;SDS011;69556;45.004;7.532;2023-12-20T05:51:38;30.08;;;17.15;;
80241;SDS011;69556;45.004;7.532;2023-12-20T05:54:04;33.33;;;20.73;;
80241;SDS011;69556;45.004;7.532;2023-12-20T05:56:29;37.57;;;19.50;;
80241;SDS011;69556;45.004;7.532;2023-12-20T05:58:54;39.07;;;22.10;;
80241;SDS011;69556;45.004;7.532;2023-12-20T06:01:20;35.90;;;16.13;;
80241;SDS011;69556;45.004;7.532;2023-12-20T06:03:45;37.70;;;19.63;;
80241;SDS011;69556;45.004;7.532;2023-12-20T06:06:13;35.38;;;17.85;;
80241;SDS011;69556;45.004;7.532;2023-12-20T06:08:39;26.27;;;16.77;;
80241;SDS011;69556;45.004;7.532;2023-12-20T06:11:04;27.52;;;17.05;;
80241;SDS011;69556;45.004;7.532;2023-12-20T06:13:30;43.97;;;17.73;;
80241;SDS011;69556;45.004;7.532;2023-12-20T06:15:56;29.25;;;16.48;;
80241;SDS011;69556;45.004;7.532;2023-12-20T06:18:21;31.27;;;17.63;;
80241;SDS011;69556;45.004;7.532;2023-12-20T06:20:47;35.33;;;18.15;;
80241;SDS011;69556;45.004;7.532;2023-12-20T06:23:12;39.63;;;17.97;;
80241;SDS011;69556;45.004;7.532;2023-12-20T06:25:37;28.97;;;18.80;;
80241;SDS011;69556;45.004;7.532;2023-12-20T06:28:03;33.00;;;17.27;;
80241;SDS011;69556;45.004;7.532;2023-12-20T06:30:28;30.45;;;20.33;;
80241;SDS011;69556;45.004;7.532;2023-12-20T06:32:54;45.03;;;18.98;;
80241;SDS011;69556;45.004;7.532;2023-12-20T06:35:22;41.35;;;20.00;;
80241;SDS011;69556;45.004;7.532;2023-12-20T06:37:47;30.67;;;17.47;;
80241;SDS011;69556;45.004;7.532;2023-12-20T06:40:13;27.13;;;17.80;;
80241;SDS011;69556;45.004;7.532;2023-12-20T06:42:38;28.20;;;16.10;;
80241;SDS011;69556;45.004;7.532;2023-12-20T06:45:03;33.80;;;18.25;;
80241;SDS011;69556;45.004;7.532;2023-12-20T06:47:29;30.60;;;17.88;;
80241;SDS011;69556;45.004;7.532;2023-12-20T06:49:54;30.20;;;19.27;;
80241;SDS011;69556;45.004;7.532;2023-12-20T06:52:20;33.63;;;18.80;;
80241;SDS011;69556;45.004;7.532;2023-12-20T06:54:45;33.97;;;19.40;;
80241;SDS011;69556;45.004;7.532;2023-12-20T06:57:10;32.87;;;18.07;;
80241;SDS011;69556;45.004;7.532;2023-12-20T06:59:39;31.60;;;18.90;;
80241;SDS011;69556;45.004;7.532;2023-12-20T07:02:05;30.88;;;18.00;;
80241;SDS011;69556;45.004;7.532;2023-12-20T07:04:31;29.98;;;18.48;;
80241;SDS011;69556;45.004;7.532;2023-12-20T07:06:56;35.53;;;19.40;;
80241;SDS011;69556;45.004;7.532;2023-12-20T07:11:50;30.88;;;18.80;;
80241;SDS011;69556;45.004;7.532;2023-12-20T07:14:16;39.10;;;20.08;;
80241;SDS011;69556;45.004;7.532;2023-12-20T07:16:41;33.07;;;19.73;;
80241;SDS011;69556;45.004;7.532;2023-12-20T07:19:06;47.67;;;19.60;;
80241;SDS011;69556;45.004;7.532;2023-12-20T07:21:32;35.80;;;19.83;;
80241;SDS011;69556;45.004;7.532;2023-12-20T07:23:57;40.35;;;20.58;;
80241;SDS011;69556;45.004;7.532;2023-12-20T07:26:22;37.75;;;19.95;;
80241;SDS011;69556;45.004;7.532;2023-12-20T07:28:48;34.70;;;19.75;;
80241;SDS011;69556;45.004;7.532;2023-12-20T07:31:15;35.90;;;20.20;;
80241;SDS011;69556;45.004;7.532;2023-12-20T07:33:41;38.22;;;19.77;;
80241;SDS011;69556;45.004;7.532;2023-12-20T07:36:06;38.87;;;22.37;;
80241;SDS011;69556;45.004;7.532;2023-12-20T07:38:32;34.50;;;20.13;;
80241;SDS011;69556;45.004;7.532;2023-12-20T07:40:57;36.92;;;18.52;;
80241;SDS011;69556;45.004;7.532;2023-12-20T07:43:23;43.17;;;21.30;;
80241;SDS011;69556;45.004;7.532;2023-12-20T07:45:48;41.90;;;21.67;;
80241;SDS011;69556;45.004;7.532;2023-12-20T07:48:13;36.50;;;20.42;;
80241;SDS011;69556;45.004;7.532;2023-12-20T07:50:39;44.23;;;22.20;;
80241;SDS011;69556;45.004;7.532;2023-12-20T07:53:04;42.70;;;23.63;;
80241;SDS011;69556;45.004;7.532;2023-12-20T07:55:30;39.65;;;23.63;;
80241;SDS011;69556;45.004;7.532;2023-12-20T07:57:57;39.78;;;24.00;;
80241;SDS011;69556;45.004;7.532;2023-12-20T08:00:23;38.47;;;24.58;;
80241;SDS011;69556;45.004;7.532;2023-12-20T08:02:48;46.38;;;23.33;;
80241;SDS011;69556;45.004;7.532;2023-12-20T08:05:14;47.10;;;24.90;;
80241;SDS011;69556;45.004;7.532;2023-12-20T08:07:39;52.28;;;27.48;;
80241;SDS011;69556;45.004;7.532;2023-12-20T08:10:05;43.13;;;25.52;;
80241;SDS011;69556;45.004;7.532;2023-12-20T08:12:30;48.65;;;27.15;;
80241;SDS011;69556;45.004;7.532;2023-12-20T08:14:56;47.92;;;27.38;;
80241;SDS011;69556;45.004;7.532;2023-12-20T08:17:22;53.50;;;27.30;;
80241;SDS011;69556;45.004;7.532;2023-12-20T08:19:48;53.67;;;28.10;;
80241;SDS011;69556;45.004;7.532;2023-12-20T08:22:13;45.70;;;26.48;;
80241;SDS011;69556;45.004;7.532;2023-12-20T08:24:39;53.38;;;27.80;;
80241;SDS011;69556;45.004;7.532;2023-12-20T08:27:04;46.05;;;24.30;;
80241;SDS011;69556;45.004;7.532;2023-12-20T08:29:30;51.15;;;27.55;;
80241;SDS011;69556;45.004;7.532;2023-12-20T08:31:56;54.45;;;27.35;;
80241;SDS011;69556;45.004;7.532;2023-12-20T08:34:22;50.05;;;26.13;;
80241;SDS011;69556;45.004;7.532;2023-12-20T08:36:50;59.10;;;32.85;;
80241;SDS011;69556;45.004;7.532;2023-12-20T08:39:16;56.92;;;29.88;;
80241;SDS011;69556;45.004;7.532;2023-12-20T08:41:41;54.75;;;25.83;;
80241;SDS011;69556;45.004;7.532;2023-12-20T08:44:07;52.58;;;27.67;;
80241;SDS011;69556;45.004;7.532;2023-12-20T08:46:32;60.37;;;27.17;;
80241;SDS011;69556;45.004;7.532;2023-12-20T08:48:57;59.17;;;27.52;;
80241;SDS011;69556;45.004;7.532;2023-12-20T08:51:23;49.33;;;26.67;;
80241;SDS011;69556;45.004;7.532;2023-12-20T08:53:50;55.92;;;27.20;;
80241;SDS011;69556;45.004;7.532;2023-12-20T08:56:16;50.95;;;27.40;;
80241;SDS011;69556;45.004;7.532;2023-12-20T08:58:42;53.20;;;31.08;;
80241;SDS011;69556;45.004;7.532;2023-12-20T09:01:08;49.38;;;28.15;;
80241;SDS011;69556;45.004;7.532;2023-12-20T09:03:34;54.75;;;28.33;;
80241;SDS011;69556;45.004;7.532;2023-12-20T09:05:59;50.03;;;28.60;;
80241;SDS011;69556;45.004;7.532;2023-12-20T09:08:25;52.15;;;26.90;;
80241;SDS011;69556;45.004;7.532;2023-12-20T09:10:50;53.80;;;30.80;;
80241;SDS011;69556;45.004;7.532;2023-12-20T09:13:15;44.97;;;26.60;;
80241;SDS011;69556;45.004;7.532;2023-12-20T09:15:41;47.30;;;28.58;;
80241;SDS011;69556;45.004;7.532;2023-12-20T09:18:06;47.58;;;27.02;;
80241;SDS011;69556;45.004;7.532;2023-12-20T09:20:32;46.70;;;26.58;;
80241;SDS011;69556;45.004;7.532;2023-12-20T09:22:58;56.85;;;28.45;;
80241;SDS011;69556;45.004;7.532;2023-12-20T09:25:23;47.20;;;28.13;;
80241;SDS011;69556;45.004;7.532;2023-12-20T09:27:49;51.22;;;29.25;;
80241;SDS011;69556;45.004;7.532;2023-12-20T09:30:14;53.27;;;28.60;;
80241;SDS011;69556;45.004;7.532;2023-12-20T09:32:39;49.73;;;27.77;;
80241;SDS011;69556;45.004;7.532;2023-12-20T09:35:05;47.38;;;27.08;;
80241;SDS011;69556;45.004;7.532;2023-12-20T09:37:31;63.42;;;33.72;;
80241;SDS011;69556;45.004;7.532;2023-12-20T09:39:57;47.88;;;28.23;;
80241;SDS011;69556;45.004;7.532;2023-12-20T09:45:13;54.67;;;28.35;;
80241;SDS011;69556;45.004;7.532;2023-12-20T09:47:41;47.53;;;27.65;;
80241;SDS011;69556;45.004;7.532;2023-12-20T09:50:08;48.25;;;28.17;;
80241;SDS011;69556;45.004;7.532;2023-12-20T09:52:34;54.97;;;29.75;;
80241;SDS011;69556;45.004;7.532;2023-12-20T09:55:01;49.72;;;30.23;;
80241;SDS011;69556;45.004;7.532;2023-12-20T09:57:32;45.50;;;28.02;;
80241;SDS011;69556;45.004;7.532;2023-12-20T09:59:57;56.33;;;27.65;;
80241;SDS011;69556;45.004;7.532;2023-12-20T10:02:24;45.13;;;26.80;;
80241;SDS011;69556;45.004;7.532;2023-12-20T10:04:52;49.58;;;26.08;;
80241;SDS011;69556;45.004;7.532;2023-12-20T10:07:17;50.10;;;28.27;;
80241;SDS011;69556;45.004;7.532;2023-12-20T10:09:43;52.97;;;30.17;;
80241;SDS011;69556;45.004;7.532;2023-12-20T10:12:09;52.80;;;28.27;;
80241;SDS011;69556;45.004;7.532;2023-12-20T10:14:34;44.88;;;25.35;;
80241;SDS011;69556;45.004;7.532;2023-12-20T10:17:03;44.33;;;29.25;;
80241;SDS011;69556;45.004;7.532;2023-12-20T10:19:29;46.55;;;27.77;;
80241;SDS011;69556;45.004;7.532;2023-12-20T10:21:55;48.90;;;29.20;;
80241;SDS011;69556;45.004;7.532;2023-12-20T10:24:20;50.70;;;28.80;;
80241;SDS011;69556;45.004;7.532;2023-12-20T10:26:46;49.67;;;26.20;;
80241;SDS011;69556;45.004;7.532;2023-12-20T10:29:11;49.92;;;27.65;;
80241;SDS011;69556;45.004;7.532;2023-12-20T10:31:36;50.83;;;29.52;;
80241;SDS011;69556;45.004;7.532;2023-12-20T10:34:03;46.67;;;25.65;;
80241;SDS011;69556;45.004;7.532;2023-12-20T10:36:30;48.97;;;29.38;;
80241;SDS011;69556;45.004;7.532;2023-12-20T10:38:58;47.85;;;30.33;;
80241;SDS011;69556;45.004;7.532;2023-12-20T10:41:25;50.80;;;29.08;;
80241;SDS011;69556;45.004;7.532;2023-12-20T10:44:00;57.50;;;31.77;;
80241;SDS011;69556;45.004;7.532;2023-12-20T10:46:30;58.53;;;33.65;;
80241;SDS011;69556;45.004;7.532;2023-12-20T10:48:57;51.15;;;31.73;;
80241;SDS011;69556;45.004;7.532;2023-12-20T10:51:23;57.40;;;35.75;;
80241;SDS011;69556;45.004;7.532;2023-12-20T10:53:51;54.67;;;31.35;;
80241;SDS011;69556;45.004;7.532;2023-12-20T10:56:18;47.05;;;30.95;;
80241;SDS011;69556;45.004;7.532;2023-12-20T10:58:44;57.13;;;31.70;;
80241;SDS011;69556;45.004;7.532;2023-12-20T11:01:15;46.13;;;30.33;;
80241;SDS011;69556;45.004;7.532;2023-12-20T11:03:48;47.88;;;29.50;;
80241;SDS011;69556;45.004;7.532;2023-12-20T11:06:33;47.05;;;28.05;;
80241;SDS011;69556;45.004;7.532;2023-12-20T11:14:27;50.40;;;28.65;;
80241;SDS011;69556;45.004;7.532;2023-12-20T11:17:09;49.25;;;28.55;;
80241;SDS011;69556;45.004;7.532;2023-12-20T11:19:43;42.65;;;27.95;;
80241;SDS011;69556;45.004;7.532;2023-12-20T11:22:24;43.85;;;27.52;;
80241;SDS011;69556;45.004;7.532;2023-12-20T11:24:50;44.67;;;24.85;;
80241;SDS011;69556;45.004;7.532;2023-12-20T11:27:16;42.97;;;28.30;;
80241;SDS011;69556;45.004;7.532;2023-12-20T11:29:43;44.40;;;27.85;;
80241;SDS011;69556;45.004;7.532;2023-12-20T11:34:55;49.20;;;29.40;;
80241;SDS011;69556;45.004;7.532;2023-12-20T11:37:21;50.08;;;31.35;;
80241;SDS011;69556;45.004;7.532;2023-12-20T11:39:54;52.53;;;32.40;;
80241;SDS011;69556;45.004;7.532;2023-12-20T11:42:21;61.35;;;35.47;;
80241;SDS011;69556;45.004;7.532;2023-12-20T11:44:46;56.70;;;31.05;;
80241;SDS011;69556;45.004;7.532;2023-12-20T11:47:13;52.58;;;29.95;;
80241;SDS011;69556;45.004;7.532;2023-12-20T11:49:39;59.13;;;34.72;;
80241;SDS011;69556;45.004;7.532;2023-12-20T11:52:05;53.78;;;33.20;;
80241;SDS011;69556;45.004;7.532;2023-12-20T11:54:30;59.28;;;33.58;;
80241;SDS011;69556;45.004;7.532;2023-12-20T11:56:56;56.85;;;34.05;;
80241;SDS011;69556;45.004;7.532;2023-12-20T11:59:21;53.40;;;30.27;;
80241;SDS011;69556;45.004;7.532;2023-12-20T12:01:50;52.67;;;29.52;;
80241;SDS011;69556;45.004;7.532;2023-12-20T12:04:16;55.08;;;29.45;;
80241;SDS011;69556;45.004;7.532;2023-12-20T12:06:42;52.28;;;32.63;;
80241;SDS011;69556;45.004;7.532;2023-12-20T12:09:08;49.75;;;34.17;;
80241;SDS011;69556;45.004;7.532;2023-12-20T12:11:34;53.13;;;33.92;;
80241;SDS011;69556;45.004;7.532;2023-12-20T12:13:59;57.28;;;35.60;;
80241;SDS011;69556;45.004;7.532;2023-12-20T12:16:25;52.03;;;32.22;;
80241;SDS011;69556;45.004;7.532;2023-12-20T12:18:55;45.25;;;30.33;;
80241;SDS011;69556;45.004;7.532;2023-12-20T12:21:23;50.70;;;31.17;;
80241;SDS011;69556;45.004;7.532;2023-12-20T12:23:49;50.00;;;31.10;;
80241;SDS011;69556;45.004;7.532;2023-12-20T12:26:15;55.35;;;33.35;;
80241;SDS011;69556;45.004;7.532;2023-12-20T12:28:40;52.67;;;31.42;;
80241;SDS011;69556;45.004;7.532;2023-12-20T12:31:12;53.10;;;33.85;;
80241;SDS011;69556;45.004;7.532;2023-12-20T12:33:40;53.60;;;33.60;;
80241;SDS011;69556;45.004;7.532;2023-12-20T12:36:06;50.42;;;29.98;;
80241;SDS011;69556;45.004;7.532;2023-12-20T12:38:32;57.95;;;33.83;;
80241;SDS011;69556;45.004;7.532;2023-12-20T12:40:59;53.53;;;29.23;;
80241;SDS011;69556;45.004;7.532;2023-12-20T12:43:25;46.85;;;30.92;;
80241;SDS011;69556;45.004;7.532;2023-12-20T12:45:51;45.80;;;29.98;;
80241;SDS011;69556;45.004;7.532;2023-12-20T12:48:17;50.25;;;31.35;;
80241;SDS011;69556;45.004;7.532;2023-12-20T12:50:42;48.85;;;30.58;;
80241;SDS011;69556;45.004;7.532;2023-12-20T12:53:08;44.90;;;29.08;;
80241;SDS011;69556;45.004;7.532;2023-12-20T12:55:34;49.50;;;29.15;;
80241;SDS011;69556;45.004;7.532;2023-12-20T12:58:00;46.40;;;27.60;;
80241;SDS011;69556;45.004;7.532;2023-12-20T13:00:25;45.83;;;28.73;;
80241;SDS011;69556;45.004;7.532;2023-12-20T13:02:51;52.28;;;28.88;;
80241;SDS011;69556;45.004;7.532;2023-12-20T13:05:16;46.55;;;27.25;;
80241;SDS011;69556;45.004;7.532;2023-12-20T13:07:42;49.60;;;28.80;;
80241;SDS011;69556;45.004;7.532;2023-12-20T13:10:10;46.53;;;30.77;;
80241;SDS011;69556;45.004;7.532;2023-12-20T13:12:35;44.60;;;26.05;;
80241;SDS011;69556;45.004;7.532;2023-12-20T13:15:01;42.45;;;27.52;;
80241;SDS011;69556;45.004;7.532;2023-12-20T13:17:34;47.65;;;29.55;;
80241;SDS011;69556;45.004;7.532;2023-12-20T13:19:59;49.10;;;29.40;;
80241;SDS011;69556;45.004;7.532;2023-12-20T13:22:25;44.67;;;27.88;;
80241;SDS011;69556;45.004;7.532;2023-12-20T13:24:50;40.40;;;24.50;;
80241;SDS011;69556;45.004;7.532;2023-12-20T13:27:15;40.00;;;26.03;;
80241;SDS011;69556;45.004;7.532;2023-12-20T13:29:41;36.50;;;24.57;;
80241;SDS011;69556;45.004;7.532;2023-12-20T13:32:06;41.47;;;22.20;;
80241;SDS011;69556;45.004;7.532;2023-12-20T13:34:32;38.78;;;25.85;;
80241;SDS011;69556;45.004;7.532;2023-12-20T13:36:57;35.33;;;23.73;;
80241;SDS011;69556;45.004;7.532;2023-12-20T13:39:23;38.08;;;22.88;;
80241;SDS011;69556;45.004;7.532;2023-12-20T13:41:48;34.47;;;23.03;;
80241;SDS011;69556;45.004;7.532;2023-12-20T13:44:14;32.40;;;22.07;;
80241;SDS011;69556;45.004;7.532;2023-12-20T13:46:40;33.85;;;23.23;;
80241;SDS011;69556;45.004;7.532;2023-12-20T13:49:06;44.35;;;24.20;;
80241;SDS011;69556;45.004;7.532;2023-12-20T13:51:31;32.03;;;19.53;;
80241;SDS011;69556;45.004;7.532;2023-12-20T13:53:56;37.83;;;20.53;;
80241;SDS011;69556;45.004;7.532;2023-12-20T13:56:22;41.05;;;25.38;;
80241;SDS011;69556;45.004;7.532;2023-12-20T13:58:48;40.08;;;22.35;;
80241;SDS011;69556;45.004;7.532;2023-12-20T14:01:13;39.08;;;20.65;;
80241;SDS011;69556;45.004;7.532;2023-12-20T14:03:39;33.83;;;20.23;;
80241;SDS011;69556;45.004;7.532;2023-12-20T14:06:06;38.28;;;19.27;;
80241;SDS011;69556;45.004;7.532;2023-12-20T14:08:31;35.22;;;21.42;;
80241;SDS011;69556;45.004;7.532;2023-12-20T14:10:56;35.20;;;20.83;;
80241;SDS011;69556;45.004;7.532;2023-12-20T14:13:22;34.17;;;21.13;;
80241;SDS011;69556;45.004;7.532;2023-12-20T14:15:47;36.40;;;20.33;;
80241;SDS011;69556;45.004;7.532;2023-12-20T14:18:14;33.15;;;19.88;;
80241;SDS011;69556;45.004;7.532;2023-12-20T14:20:40;32.83;;;21.70;;
80241;SDS011;69556;45.004;7.532;2023-12-20T14:23:07;34.85;;;21.80;;
80241;SDS011;69556;45.004;7.532;2023-12-20T14:25:34;33.10;;;21.33;;
80241;SDS011;69556;45.004;7.532;2023-12-20T14:28:02;34.92;;;22.35;;
80241;SDS011;69556;45.004;7.532;2023-12-20T14:30:28;33.13;;;19.90;;
80241;SDS011;69556;45.004;7.532;2023-12-20T14:32:53;38.55;;;24.30;;